Time;durP1;ratioP1;P1;durP2;ratioP2;P2;SDS_P1;SDS_P2;PMS_P1;PMS_P2;Temp;Humidity;BMP_temperature;BMP_pressure;BME280_temperature;BME280_humidity;BME280_pressure;Samples;Min_cycle;Max_cycle;Signal;HPM_P1;HPM_P2
2022/04/18 00:02:08;;;;;;;23.27;15.60;;;5.90;99.90;;;;;;5074945;28;20648;-68
2022/04/18 00:04:35;;;;;;;25.30;15.93;;;5.90;99.90;;;;;;5081535;28;20040;-70
2022/04/18 00:07:01;;;;;;;21.70;15.20;;;5.90;99.90;;;;;;5082639;28;20106;-72
2022/04/18 00:09:27;;;;;;;26.73;15.95;;;5.80;99.90;;;;;;5082994;28;20513;-70
2022/04/18 00:11:52;;;;;;;26.25;16.38;;;5.80;99.90;;;;;;5083312;28;20048;-70
2022/04/18 00:14:18;;;;;;;22.60;15.73;;;5.80;99.90;;;;;;5087883;28;20081;-72
2022/04/18 00:16:43;;;;;;;28.55;16.67;;;5.80;99.90;;;;;;5087810;28;20109;-70
2022/04/18 00:19:09;;;;;;;24.70;16.13;;;5.70;99.90;;;;;;5086300;28;20476;-70
2022/04/18 00:21:34;;;;;;;23.60;15.38;;;5.70;99.90;;;;;;5085228;28;20036;-71
2022/04/18 00:24:00;;;;;;;23.88;15.50;;;5.70;99.90;;;;;;5081254;28;20044;-70
2022/04/18 00:26:25;;;;;;;24.10;15.85;;;5.70;99.90;;;;;;5083128;28;20040;-69
2022/04/18 00:28:51;;;;;;;26.88;15.75;;;5.70;99.90;;;;;;5082588;28;20043;-70
2022/04/18 00:31:17;;;;;;;25.80;16.05;;;5.70;99.90;;;;;;5082331;28;20046;-71
2022/04/18 00:33:42;;;;;;;28.00;16.38;;;5.60;99.90;;;;;;5084017;28;20048;-70
2022/04/18 00:36:07;;;;;;;28.58;16.00;;;5.60;99.90;;;;;;5083541;28;20548;-71
2022/04/18 00:38:33;;;;;;;26.63;17.75;;;5.60;99.90;;;;;;5080315;28;20554;-71
2022/04/18 00:40:58;;;;;;;27.02;16.58;;;5.60;99.90;;;;;;5083694;28;20036;-72
2022/04/18 00:43:45;;;;;;;25.60;16.55;;;5.60;99.90;;;;;;5082057;28;20040;-72
2022/04/18 00:46:12;;;;;;;28.38;17.25;;;5.60;99.90;;;;;;5082510;28;20493;-71
2022/04/18 00:48:38;;;;;;;26.17;17.20;;;5.50;99.90;;;;;;5082887;28;20440;-72
2022/04/18 00:51:05;;;;;;;25.88;16.65;;;5.50;99.90;;;;;;5082809;28;20032;-70
2022/04/18 00:53:34;;;;;;;26.00;16.88;;;5.50;99.90;;;;;;5084255;28;20044;-71
2022/04/18 00:56:00;;;;;;;25.17;17.02;;;5.50;99.90;;;;;;5081837;28;20414;-70
2022/04/18 00:58:26;;;;;;;27.35;17.10;;;5.50;99.90;;;;;;5080266;28;20036;-71
2022/04/18 01:00:53;;;;;;;26.95;17.10;;;5.50;99.90;;;;;;5081548;28;20040;-71
2022/04/18 01:03:20;;;;;;;29.70;17.83;;;5.50;99.90;;;;;;5084315;28;20390;-70
2022/04/18 01:05:47;;;;;;;28.15;17.63;;;5.50;99.90;;;;;;5081488;28;20559;-71
2022/04/18 01:08:13;;;;;;;30.35;18.52;;;5.60;99.90;;;;;;5084629;28;20521;-72
2022/04/18 01:10:40;;;;;;;30.27;18.77;;;5.60;99.90;;;;;;5081936;28;20403;-72
2022/04/18 01:13:05;;;;;;;27.20;17.77;;;5.50;99.90;;;;;;5084255;28;20036;-72
2022/04/18 01:15:31;;;;;;;29.17;17.92;;;5.60;99.90;;;;;;5087256;28;20032;-72
2022/04/18 01:17:57;;;;;;;31.15;18.30;;;5.60;99.90;;;;;;5083938;28;20395;-71
2022/04/18 01:20:25;;;;;;;30.38;18.65;;;5.60;99.90;;;;;;5083962;28;20036;-71
2022/04/18 01:22:52;;;;;;;33.00;18.98;;;5.60;99.90;;;;;;5082643;28;20135;-72
2022/04/18 01:30:54;;;;;;;28.92;19.33;;;5.60;99.90;;;;;;5087129;28;20406;-71
2022/04/18 01:33:20;;;;;;;31.02;19.33;;;5.50;99.90;;;;;;5083661;28;20474;-71
2022/04/18 01:35:45;;;;;;;32.88;19.52;;;5.50;99.90;;;;;;5086683;28;20048;-71
2022/04/18 01:38:11;;;;;;;32.20;18.52;;;5.50;99.90;;;;;;5085040;28;20032;-71
2022/04/18 01:40:37;;;;;;;31.77;20.05;;;5.40;99.90;;;;;;5085222;28;20036;-71
2022/04/18 01:43:02;;;;;;;32.10;19.35;;;5.50;99.90;;;;;;5085180;28;20070;-71
2022/04/18 01:45:28;;;;;;;36.00;19.85;;;5.40;99.90;;;;;;5087015;28;20039;-71
2022/04/18 01:47:53;;;;;;;30.33;19.38;;;5.40;99.90;;;;;;5085908;28;20245;-70
2022/04/18 01:50:19;;;;;;;32.08;19.70;;;5.40;99.90;;;;;;5085405;28;20044;-70
2022/04/18 01:52:44;;;;;;;30.25;19.73;;;5.30;99.90;;;;;;5086081;28;20128;-70
2022/04/18 01:55:10;;;;;;;32.33;19.90;;;5.30;99.90;;;;;;5086046;28;20401;-70
2022/04/18 01:57:36;;;;;;;36.85;21.35;;;5.20;99.90;;;;;;5069026;28;20043;-70
2022/04/18 02:00:02;;;;;;;31.80;20.48;;;5.20;99.90;;;;;;5084867;28;20044;-70
2022/04/18 02:02:28;;;;;;;30.50;20.08;;;5.10;99.90;;;;;;5085947;28;20040;-71
2022/04/18 02:04:54;;;;;;;32.33;21.15;;;5.10;99.90;;;;;;5085730;28;20039;-70
2022/04/18 02:07:19;;;;;;;34.22;20.60;;;5.10;99.90;;;;;;5086112;28;20036;-70
2022/04/18 02:09:45;;;;;;;35.72;20.92;;;5.00;99.90;;;;;;5085376;28;20044;-70
2022/04/18 02:12:12;;;;;;;34.90;20.83;;;5.00;99.90;;;;;;5085330;28;20398;-70
2022/04/18 02:14:37;;;;;;;31.25;20.85;;;4.90;99.90;;;;;;5082352;28;20101;-70
2022/04/18 02:17:03;;;;;;;35.70;21.05;;;4.90;99.90;;;;;;5085210;28;20036;-70
2022/04/18 02:19:28;;;;;;;32.13;20.40;;;4.90;99.90;;;;;;5085844;28;20062;-70
2022/04/18 02:21:54;;;;;;;31.88;20.08;;;4.80;99.90;;;;;;5082765;28;20048;-70
2022/04/18 02:24:19;;;;;;;36.30;21.85;;;4.80;99.90;;;;;;5085401;28;20039;-70
2022/04/18 02:26:45;;;;;;;38.65;22.80;;;4.70;99.90;;;;;;5083467;28;20079;-71
2022/04/18 02:29:10;;;;;;;39.33;21.95;;;4.70;99.90;;;;;;5083408;28;20058;-70
2022/04/18 02:32:47;;;;;;;37.33;22.42;;;4.70;99.90;;;;;;5084529;28;20036;-70
2022/04/18 02:34:21;;;;;;;40.58;23.08;;;4.60;99.90;;;;;;5084315;28;20071;-70
2022/04/18 02:36:47;;;;;;;35.67;21.73;;;4.60;99.90;;;;;;5081690;28;20079;-70
2022/04/18 02:39:12;;;;;;;38.80;23.85;;;4.60;99.90;;;;;;5084640;28;20042;-70
2022/04/18 02:41:38;;;;;;;36.72;22.27;;;4.50;99.90;;;;;;5085391;28;20471;-70
2022/04/18 02:44:04;;;;;;;42.72;22.63;;;4.50;99.90;;;;;;5084383;28;20039;-70
2022/04/18 02:46:29;;;;;;;39.45;23.02;;;4.50;99.90;;;;;;5083920;28;20048;-70
2022/04/18 02:48:55;;;;;;;40.70;23.00;;;4.40;99.90;;;;;;5084719;28;20079;-70
2022/04/18 02:51:20;;;;;;;36.70;23.27;;;4.40;99.90;;;;;;5086077;28;20403;-70
2022/04/18 02:53:46;;;;;;;41.20;24.30;;;4.40;99.90;;;;;;5081348;28;20101;-69
2022/04/18 02:56:11;;;;;;;45.42;24.70;;;4.40;99.90;;;;;;5083406;28;20037;-70
2022/04/18 02:58:37;;;;;;;47.63;26.48;;;4.40;99.90;;;;;;5083666;28;20036;-70
2022/04/18 03:01:02;;;;;;;48.50;26.67;;;4.40;99.90;;;;;;5084358;28;20073;-70
2022/04/18 03:03:28;;;;;;;46.75;24.85;;;4.30;99.90;;;;;;5084775;28;20032;-70
2022/04/18 03:05:53;;;;;;;45.58;26.77;;;4.40;99.90;;;;;;5084944;28;20130;-70
2022/04/18 03:08:19;;;;;;;48.97;26.50;;;4.30;99.90;;;;;;5083331;28;20051;-70
2022/04/18 03:11:02;;;;;;;50.08;27.30;;;4.30;99.90;;;;;;5083088;28;20048;-70
2022/04/18 03:13:28;;;;;;;52.88;27.30;;;4.30;99.90;;;;;;5082970;28;20043;-71
2022/04/18 03:15:54;;;;;;;52.40;26.60;;;4.30;99.90;;;;;;5084103;28;20024;-70
2022/04/18 03:18:20;;;;;;;47.58;27.27;;;4.30;99.90;;;;;;5084459;28;20112;-70
2022/04/18 03:20:46;;;;;;;46.45;26.67;;;4.30;99.90;;;;;;5081295;28;20040;-69
2022/04/18 03:23:11;;;;;;;46.85;25.75;;;4.30;99.90;;;;;;5082036;28;20138;-70
2022/04/18 03:25:37;;;;;;;44.45;26.67;;;4.30;99.90;;;;;;5084943;28;20102;-70
2022/04/18 03:28:03;;;;;;;45.05;25.90;;;4.30;99.90;;;;;;5083079;28;20439;-70
2022/04/18 03:30:28;;;;;;;41.15;24.30;;;4.20;99.90;;;;;;5082191;28;20040;-70
2022/04/18 03:32:54;;;;;;;40.88;24.15;;;4.20;99.90;;;;;;5082798;28;20067;-69
2022/04/18 03:35:19;;;;;;;38.35;25.08;;;4.20;99.90;;;;;;5082040;28;20040;-70
2022/04/18 03:40:29;;;;;;;38.90;23.48;;;4.20;99.90;;;;;;5083881;28;20043;-70
2022/04/18 03:42:54;;;;;;;38.85;23.95;;;4.20;99.90;;;;;;5083522;28;20044;-70
2022/04/18 03:45:20;;;;;;;37.10;23.02;;;4.10;99.90;;;;;;5084524;28;20042;-70
2022/04/18 03:47:45;;;;;;;38.42;23.65;;;4.10;99.90;;;;;;5082563;28;20483;-69
2022/04/18 03:50:11;;;;;;;36.85;23.42;;;4.10;99.90;;;;;;5083587;28;20040;-70
2022/04/18 03:52:37;;;;;;;37.45;23.58;;;4.00;99.90;;;;;;5077895;28;20039;-70
2022/04/18 03:55:02;;;;;;;33.35;22.33;;;4.10;99.90;;;;;;5082260;28;20043;-70
2022/04/18 03:57:28;;;;;;;37.40;24.02;;;4.00;99.90;;;;;;5082333;28;20032;-70
2022/04/18 03:59:53;;;;;;;37.65;23.00;;;4.00;99.90;;;;;;5080725;28;20036;-69
2022/04/18 04:02:19;;;;;;;36.42;23.63;;;4.00;99.90;;;;;;5080063;28;20039;-70
2022/04/18 04:04:44;;;;;;;32.50;22.63;;;4.00;99.90;;;;;;5083067;28;20478;-69
2022/04/18 04:07:10;;;;;;;35.13;22.40;;;4.00;99.90;;;;;;5082430;28;20082;-70
2022/04/18 04:09:36;;;;;;;38.63;24.00;;;4.00;99.90;;;;;;5080752;28;20050;-70
2022/04/18 04:12:03;;;;;;;35.72;23.25;;;4.00;99.90;;;;;;5080378;28;20071;-70
2022/04/18 04:14:29;;;;;;;40.72;24.42;;;4.00;99.90;;;;;;5084043;28;20131;-69
2022/04/18 04:16:54;;;;;;;35.92;23.80;;;4.00;99.90;;;;;;5082286;28;20577;-69
2022/04/18 04:19:20;;;;;;;37.88;23.55;;;4.00;99.90;;;;;;5082064;28;20086;-69
2022/04/18 04:21:45;;;;;;;36.22;23.92;;;3.90;99.90;;;;;;5082040;28;20055;-69
2022/04/18 04:24:11;;;;;;;36.05;23.52;;;3.90;99.90;;;;;;5083547;28;20429;-69
2022/04/18 04:26:37;;;;;;;39.65;23.80;;;3.90;99.90;;;;;;5081977;28;20505;-69
2022/04/18 04:29:02;;;;;;;36.15;24.17;;;3.90;99.90;;;;;;5065049;28;20035;-69
2022/04/18 04:31:28;;;;;;;38.20;23.50;;;3.90;99.90;;;;;;5080779;28;20048;-70
2022/04/18 04:33:54;;;;;;;37.10;23.45;;;3.80;99.90;;;;;;5082335;28;20483;-70
2022/04/18 04:36:20;;;;;;;40.92;23.23;;;3.80;99.90;;;;;;5083203;28;20040;-70
2022/04/18 04:38:45;;;;;;;35.95;22.23;;;3.80;99.90;;;;;;5083905;28;20077;-70
2022/04/18 04:41:11;;;;;;;35.08;22.95;;;3.80;99.90;;;;;;5086723;28;20031;-70
2022/04/18 04:43:38;;;;;;;38.28;23.40;;;3.80;99.90;;;;;;5086840;28;20052;-70
2022/04/18 04:46:04;;;;;;;35.70;22.25;;;3.90;99.90;;;;;;5085633;28;20089;-70
2022/04/18 04:48:29;;;;;;;37.60;22.77;;;3.90;99.90;;;;;;5081832;28;20048;-70
2022/04/18 04:50:55;;;;;;;38.10;23.52;;;3.90;99.90;;;;;;5086875;28;20048;-70
2022/04/18 04:53:21;;;;;;;34.88;22.38;;;3.90;99.90;;;;;;5088095;28;20049;-70
2022/04/18 04:55:46;;;;;;;38.47;23.17;;;3.90;99.90;;;;;;5085333;28;20083;-71
2022/04/18 04:58:12;;;;;;;37.67;22.30;;;4.00;99.90;;;;;;5086852;28;20040;-71
2022/04/18 05:00:38;;;;;;;32.85;21.33;;;4.00;99.90;;;;;;5070109;28;20078;-70
2022/04/18 05:03:05;;;;;;;36.47;22.95;;;4.00;99.90;;;;;;5084934;28;20067;-70
2022/04/18 05:05:32;;;;;;;31.23;20.95;;;4.10;99.90;;;;;;5086627;28;20080;-70
2022/04/18 05:07:58;;;;;;;36.45;22.58;;;4.10;99.90;;;;;;5085447;28;20127;-70
2022/04/18 05:10:23;;;;;;;35.70;22.20;;;4.10;99.90;;;;;;5082645;28;20123;-70
2022/04/18 05:12:49;;;;;;;32.75;21.70;;;4.10;99.90;;;;;;5081409;28;20040;-69
2022/04/18 05:15:14;;;;;;;31.35;21.30;;;4.20;99.90;;;;;;5087281;28;20052;-70
2022/04/18 05:17:40;;;;;;;34.75;21.52;;;4.20;99.90;;;;;;5086779;28;20040;-70
2022/04/18 05:20:06;;;;;;;34.63;21.20;;;4.30;99.90;;;;;;5080113;28;20432;-70
2022/04/18 05:22:32;;;;;;;29.83;20.10;;;4.30;99.90;;;;;;5088341;28;20036;-70
2022/04/18 05:24:58;;;;;;;33.45;22.05;;;4.40;99.90;;;;;;5083762;28;20051;-70
2022/04/18 05:27:24;;;;;;;34.72;21.15;;;4.50;99.90;;;;;;5082907;28;20036;-69
2022/04/18 05:29:50;;;;;;;34.55;21.30;;;4.50;99.90;;;;;;5087157;28;20552;-70
2022/04/18 05:32:16;;;;;;;32.70;21.75;;;4.50;99.90;;;;;;5086608;28;20097;-69
2022/04/18 05:34:42;;;;;;;33.45;21.35;;;4.60;99.90;;;;;;5087302;28;20036;-70
2022/04/18 05:37:08;;;;;;;34.80;21.45;;;4.60;99.90;;;;;;5086170;28;20043;-69
2022/04/18 05:39:34;;;;;;;36.00;22.42;;;4.70;99.90;;;;;;5088917;28;20123;-70
2022/04/18 05:41:59;;;;;;;37.58;22.17;;;4.70;99.90;;;;;;5086704;28;20046;-70
2022/04/18 05:44:25;;;;;;;31.45;22.15;;;4.70;99.90;;;;;;5085968;28;20036;-69
2022/04/18 05:46:51;;;;;;;32.92;21.58;;;4.90;99.90;;;;;;5086466;28;20046;-69
2022/04/18 05:49:17;;;;;;;39.97;22.40;;;4.90;99.90;;;;;;5081849;28;20051;-70
2022/04/18 05:51:42;;;;;;;39.17;22.80;;;5.00;99.90;;;;;;5086317;28;20122;-70
2022/04/18 05:54:09;;;;;;;34.70;22.02;;;5.00;99.90;;;;;;5085670;28;20098;-70
2022/04/18 05:56:34;;;;;;;42.13;23.60;;;5.10;99.90;;;;;;5086638;28;20392;-69
2022/04/18 05:59:00;;;;;;;36.35;22.77;;;5.20;99.90;;;;;;5085507;28;20040;-71
2022/04/18 06:01:28;;;;;;;40.47;23.23;;;5.30;99.90;;;;;;5085151;28;20070;-71
2022/04/18 06:03:54;;;;;;;44.10;24.73;;;5.40;99.90;;;;;;5084095;28;20136;-71
2022/04/18 06:06:20;;;;;;;36.83;22.92;;;5.50;99.90;;;;;;5084729;28;20130;-72
2022/04/18 06:08:46;;;;;;;39.97;24.40;;;5.60;99.90;;;;;;5083325;28;20044;-70
2022/04/18 06:11:11;;;;;;;39.22;23.33;;;5.70;99.90;;;;;;5084956;28;20044;-71
2022/04/18 06:13:37;;;;;;;38.47;24.55;;;5.80;99.90;;;;;;5083540;28;20400;-70
2022/04/18 06:16:02;;;;;;;39.15;23.45;;;5.90;99.90;;;;;;5085223;28;20066;-70
2022/04/18 06:18:28;;;;;;;40.35;22.23;;;6.00;99.90;;;;;;5068157;28;20035;-70
2022/04/18 06:20:53;;;;;;;37.25;23.17;;;6.20;99.90;;;;;;5088206;28;20077;-70
2022/04/18 06:23:19;;;;;;;36.45;22.35;;;6.30;99.90;;;;;;5089918;28;20473;-71
2022/04/18 06:25:45;;;;;;;35.83;21.58;;;6.40;99.90;;;;;;5089631;28;20039;-70
2022/04/18 06:28:12;;;;;;;34.30;21.02;;;6.50;99.90;;;;;;5088142;28;20062;-71
2022/04/18 06:30:38;;;;;;;33.70;20.85;;;6.70;99.90;;;;;;5087446;28;20080;-70
2022/04/18 06:33:04;;;;;;;31.77;20.80;;;6.80;99.90;;;;;;5088544;28;20032;-71
2022/04/18 06:35:29;;;;;;;32.03;20.33;;;7.00;99.90;;;;;;5088918;28;20479;-71
2022/04/18 06:37:55;;;;;;;30.92;20.42;;;7.10;99.90;;;;;;5088438;28;20160;-70
2022/04/18 06:40:20;;;;;;;31.40;20.42;;;7.30;99.90;;;;;;5088910;28;20490;-71
2022/04/18 06:42:46;;;;;;;33.50;20.27;;;7.40;99.90;;;;;;5088540;28;20123;-70
2022/04/18 06:45:12;;;;;;;31.73;20.92;;;7.60;99.90;;;;;;5089475;28;20114;-70
2022/04/18 06:47:37;;;;;;;30.13;19.40;;;7.70;99.90;;;;;;5087031;28;20040;-71
2022/04/18 06:50:08;;;;;;;27.75;19.00;;;7.90;99.90;;;;;;5087787;28;20048;-71
2022/04/18 06:52:41;;;;;;;31.05;20.65;;;8.00;99.90;;;;;;5087562;28;20123;-71
2022/04/18 06:55:08;;;;;;;31.70;19.38;;;8.20;99.90;;;;;;5088305;28;20167;-71
2022/04/18 06:57:34;;;;;;;28.63;19.08;;;8.30;99.90;;;;;;5089162;28;20044;-71
2022/04/18 07:00:00;;;;;;;27.80;19.05;;;8.40;99.90;;;;;;5070067;28;20131;-72
2022/04/18 07:02:25;;;;;;;26.75;18.90;;;8.60;99.90;;;;;;5087520;28;20036;-71
2022/04/18 07:04:51;;;;;;;29.77;18.85;;;8.70;99.90;;;;;;5089026;28;20044;-70
2022/04/18 07:07:16;;;;;;;27.70;18.55;;;8.80;99.90;;;;;;5088911;28;20047;-71
2022/04/18 07:09:42;;;;;;;27.83;18.55;;;9.00;99.90;;;;;;5088037;28;20438;-71
2022/04/18 07:12:08;;;;;;;27.95;18.83;;;9.10;99.90;;;;;;5086098;28;20032;-71
2022/04/18 07:14:36;;;;;;;26.75;19.15;;;9.20;99.90;;;;;;5087538;28;20068;-71
2022/04/18 07:17:01;;;;;;;25.98;17.67;;;9.40;99.90;;;;;;5086101;28;20055;-71
2022/04/18 07:19:28;;;;;;;24.20;17.95;;;9.50;99.90;;;;;;5067714;28;20482;-72
2022/04/18 07:21:55;;;;;;;26.90;17.90;;;9.70;99.90;;;;;;5087982;28;20035;-70
2022/04/18 07:24:22;;;;;;;26.58;16.85;;;9.80;99.90;;;;;;5083990;28;20981;-70
2022/04/18 07:26:48;;;;;;;24.40;17.00;;;9.90;99.90;;;;;;5087774;28;20051;-70
2022/04/18 07:29:13;;;;;;;24.42;16.83;;;10.00;99.90;;;;;;5087590;28;20043;-70
2022/04/18 07:31:39;;;;;;;23.95;16.60;;;10.10;99.90;;;;;;5087630;28;20048;-71
2022/04/18 07:34:04;;;;;;;26.10;17.38;;;10.20;99.90;;;;;;5086540;28;20514;-71
2022/04/18 07:36:30;;;;;;;24.52;16.25;;;10.30;99.90;;;;;;5088592;28;20386;-70
2022/04/18 07:38:55;;;;;;;23.95;15.40;;;10.50;99.90;;;;;;5086949;28;20493;-70
2022/04/18 07:41:23;;;;;;;24.77;15.95;;;10.60;99.90;;;;;;5087967;28;20062;-70
2022/04/18 07:43:49;;;;;;;23.52;15.73;;;10.70;99.90;;;;;;5087464;28;20127;-71
2022/04/18 07:46:15;;;;;;;23.38;15.43;;;10.80;99.90;;;;;;5082970;28;20028;-71
2022/04/18 07:48:42;;;;;;;20.95;14.63;;;10.90;99.90;;;;;;5087379;28;20044;-72
2022/04/18 07:53:52;;;;;;;23.08;15.60;;;11.20;99.90;;;;;;5088127;28;20083;-69
2022/04/18 07:56:17;;;;;;;22.52;15.40;;;11.30;99.90;;;;;;5084422;28;20482;-70
2022/04/18 07:58:43;;;;;;;23.13;14.38;;;11.40;99.90;;;;;;5084204;28;20170;-70
2022/04/18 08:01:08;;;;;;;24.42;15.07;;;11.50;99.90;;;;;;5083627;28;20457;-70
2022/04/18 08:03:35;;;;;;;21.48;14.27;;;11.60;99.90;;;;;;5081459;28;20502;-70
2022/04/18 08:06:01;;;;;;;22.85;14.57;;;11.70;99.90;;;;;;5082985;28;20039;-72
2022/04/18 08:08:26;;;;;;;19.92;13.60;;;11.80;99.90;;;;;;5083447;28;20032;-70
2022/04/18 08:10:52;;;;;;;20.63;14.57;;;12.00;99.90;;;;;;5082658;28;20135;-70
2022/04/18 08:13:18;;;;;;;21.83;14.00;;;12.10;99.90;;;;;;5083220;28;20512;-71
2022/04/18 08:15:44;;;;;;;21.13;14.30;;;12.20;99.90;;;;;;5087580;28;20044;-68
2022/04/18 08:18:09;;;;;;;20.30;13.75;;;12.30;99.90;;;;;;5091935;28;20039;-73
2022/04/18 08:20:35;;;;;;;25.00;14.82;;;12.40;99.90;;;;;;5092124;28;20123;-71
2022/04/18 08:23:00;;;;;;;20.40;14.18;;;12.40;99.90;;;;;;5084616;28;20123;-70
2022/04/18 08:25:26;;;;;;;21.70;14.18;;;12.50;99.90;;;;;;5087477;28;20042;-71
2022/04/18 08:27:51;;;;;;;22.67;14.57;;;12.60;99.90;;;;;;5085391;28;20136;-71
2022/04/18 08:30:17;;;;;;;19.05;14.20;;;12.60;99.90;;;;;;5087008;28;20040;-70
2022/04/18 08:32:43;;;;;;;24.20;15.45;;;12.70;99.90;;;;;;5088858;28;20070;-72
2022/04/18 08:35:10;;;;;;;21.05;15.02;;;12.80;99.90;;;;;;5085886;28;20040;-70
2022/04/18 08:37:36;;;;;;;25.60;15.70;;;12.90;99.80;;;;;;5085891;28;20048;-71
2022/04/18 08:40:07;;;;;;;22.92;15.15;;;12.90;99.90;;;;;;5085661;28;20505;-72
2022/04/18 08:42:38;;;;;;;22.08;15.18;;;13.10;99.90;;;;;;5071265;28;20032;-70
2022/04/18 08:45:07;;;;;;;23.55;15.52;;;13.10;96.80;;;;;;5086064;28;20411;-69
2022/04/18 08:53:03;;;;;;;25.27;14.65;;;13.50;97.60;;;;;;5087829;28;20101;-70
2022/04/18 08:55:29;;;;;;;22.92;15.25;;;13.60;98.00;;;;;;5080256;28;20469;-71
2022/04/18 08:57:55;;;;;;;23.50;15.77;;;13.80;97.90;;;;;;5068705;28;20062;-71
2022/04/18 09:00:21;;;;;;;23.30;15.43;;;13.90;95.70;;;;;;5087748;28;20055;-73
2022/04/18 09:02:46;;;;;;;21.13;15.65;;;14.00;96.20;;;;;;5086403;28;20035;-73
2022/04/18 09:05:13;;;;;;;23.95;14.55;;;14.10;95.70;;;;;;5085205;28;20048;-72
2022/04/18 09:08:00;;;;;;;22.70;14.95;;;14.20;93.10;;;;;;5087605;28;20032;-72
2022/04/18 09:10:26;;;;;;;21.58;15.60;;;14.20;84.60;;;;;;5086755;28;20047;-74
2022/04/18 09:12:52;;;;;;;23.92;15.95;;;14.20;76.70;;;;;;5087194;28;20051;-70
2022/04/18 09:15:43;;;;;;;23.95;15.05;;;14.30;88.80;;;;;;5087633;28;20916;-71
2022/04/18 09:18:19;;;;;;;21.98;15.30;;;14.50;86.40;;;;;;5085746;28;20075;-71
2022/04/18 09:20:51;;;;;;;23.52;14.98;;;14.60;88.10;;;;;;5085793;28;20390;-70
2022/04/18 09:23:33;;;;;;;22.23;14.32;;;14.70;86.40;;;;;;5087300;28;20040;-72
2022/04/18 09:26:00;;;;;;;21.02;14.05;;;14.90;88.90;;;;;;5084728;28;20075;-71
2022/04/18 09:28:29;;;;;;;24.73;13.15;;;15.00;89.20;;;;;;5086801;28;20044;-71
2022/04/18 09:31:08;;;;;;;19.75;13.40;;;15.10;84.50;;;;;;5085402;28;20040;-70
2022/04/18 09:33:37;;;;;;;18.08;12.65;;;15.30;83.50;;;;;;5086981;28;20067;-71
2022/04/18 09:36:06;;;;;;;21.05;12.90;;;15.40;79.10;;;;;;5087419;28;20135;-70
2022/04/18 09:38:39;;;;;;;21.35;13.68;;;15.60;79.60;;;;;;5086904;28;20522;-70
2022/04/18 09:41:05;;;;;;;20.77;14.63;;;15.70;80.40;;;;;;5086012;28;20507;-70
2022/04/18 09:43:48;;;;;;;18.52;12.48;;;15.80;68.40;;;;;;5085365;28;20044;-71
2022/04/18 09:46:14;;;;;;;17.88;12.40;;;15.80;69.20;;;;;;5087001;28;20039;-69
2022/04/18 09:48:44;;;;;;;16.58;11.82;;;15.90;73.40;;;;;;5088280;28;20040;-71
2022/04/18 09:51:15;;;;;;;17.38;12.20;;;16.00;71.10;;;;;;5087709;28;20036;-72
2022/04/18 09:53:44;;;;;;;17.38;12.13;;;16.10;71.40;;;;;;5090187;28;20510;-71
2022/04/18 09:56:17;;;;;;;18.92;12.55;;;16.20;70.50;;;;;;5089447;28;20036;-70
2022/04/18 09:58:43;;;;;;;18.42;11.68;;;16.30;72.00;;;;;;5088207;28;20043;-70
2022/04/18 10:01:11;;;;;;;18.55;12.38;;;16.50;71.00;;;;;;5088616;28;20032;-72
2022/04/18 10:03:37;;;;;;;14.75;9.98;;;16.60;70.20;;;;;;5086256;28;20145;-70
2022/04/18 10:06:05;;;;;;;16.08;10.00;;;16.80;67.90;;;;;;5091427;28;20069;-72
2022/04/18 10:08:32;;;;;;;13.98;9.82;;;16.90;67.20;;;;;;5089502;28;20047;-71
2022/04/18 10:10:59;;;;;;;15.27;11.20;;;16.90;61.30;;;;;;5089025;28;20047;-71
2022/04/18 10:13:27;;;;;;;13.95;10.35;;;17.00;62.50;;;;;;5084732;28;20143;-72
2022/04/18 10:15:54;;;;;;;14.70;9.90;;;17.10;60.60;;;;;;5086693;28;20036;-72
2022/04/18 10:18:20;;;;;;;13.98;9.90;;;17.10;59.60;;;;;;5089852;28;20032;-72
2022/04/18 10:21:08;;;;;;;14.00;9.25;;;17.20;61.60;;;;;;5086504;28;20036;-71
2022/04/18 10:24:00;;;;;;;15.65;9.90;;;17.30;61.60;;;;;;5090563;28;20047;-72
2022/04/18 10:26:26;;;;;;;;;;;17.40;57.90;;;;;;5081022;28;20039;-73
2022/04/18 10:28:53;;;;;;;12.40;9.70;;;17.40;60.90;;;;;;5085622;28;19920;-71
2022/04/18 10:31:27;;;;;;;14.48;10.07;;;17.40;60.40;;;;;;5085767;28;20071;-70
2022/04/18 10:33:55;;;;;;;14.63;9.93;;;17.40;60.10;;;;;;5085363;28;20071;-71
2022/04/18 10:36:25;;;;;;;15.00;10.25;;;17.40;58.60;;;;;;5085687;28;20383;-72
2022/04/18 10:38:51;;;;;;;15.02;9.68;;;17.50;53.90;;;;;;5086807;28;20043;-73
2022/04/18 10:41:39;;;;;;;14.13;10.10;;;17.60;58.20;;;;;;5086600;28;20511;-71
2022/04/18 10:44:10;;;;;;;12.63;9.63;;;17.60;54.20;;;;;;5089709;28;20036;-71
2022/04/18 10:47:00;;;;;;;17.27;9.73;;;17.70;56.00;;;;;;5089093;28;20500;-72
2022/04/18 10:49:31;;;;;;;12.68;8.55;;;17.80;57.10;;;;;;5090038;28;20055;-73
2022/04/18 10:51:57;;;;;;;12.65;9.23;;;17.80;53.60;;;;;;5089357;28;20094;-72
2022/04/18 10:54:33;;;;;;;12.27;8.82;;;17.90;53.80;;;;;;5089536;28;20046;-72
2022/04/18 10:57:08;;;;;;;14.70;8.30;;;17.90;53.00;;;;;;5089841;28;20044;-70
2022/04/18 10:59:36;;;;;;;12.98;9.25;;;18.00;54.00;;;;;;5089524;28;20043;-72
2022/04/18 11:02:04;;;;;;;11.38;8.18;;;18.00;53.40;;;;;;5073522;28;20059;-71
2022/04/18 11:04:44;;;;;;;13.88;8.48;;;18.10;54.50;;;;;;5070417;28;20055;-72
2022/04/18 11:07:11;;;;;;;12.27;8.75;;;18.10;50.70;;;;;;5070062;28;20044;-72
2022/04/18 11:09:46;;;;;;;12.68;8.48;;;18.20;52.10;;;;;;5077491;28;20079;-72
2022/04/18 11:12:17;;;;;;;8.35;4.88;;;18.30;52.40;;;;;;5089640;28;20048;-73
2022/04/18 11:14:52;;;;;;;8.35;5.30;;;18.40;46.00;;;;;;5089670;28;20071;-72
2022/04/18 11:17:29;;;;;;;12.45;7.45;;;18.50;51.30;;;;;;5083603;28;20081;-74
2022/04/18 11:19:55;;;;;;;14.50;7.55;;;18.60;52.60;;;;;;5068239;28;20511;-72
2022/04/18 11:22:25;;;;;;;12.23;7.28;;;18.70;52.40;;;;;;5069310;28;20329;-73
2022/04/18 11:24:54;;;;;;;11.48;7.13;;;18.70;49.80;;;;;;5068952;28;20135;-74
2022/04/18 11:27:22;;;;;;;10.07;7.30;;;18.70;50.50;;;;;;5084679;28;20108;-72
2022/04/18 11:29:50;;;;;;;10.63;7.70;;;18.70;49.40;;;;;;5087413;28;20040;-71
2022/04/18 11:32:18;;;;;;;10.77;7.13;;;18.70;49.10;;;;;;5089688;28;20048;-71
2022/04/18 11:34:45;;;;;;;12.25;8.77;;;18.70;48.50;;;;;;5091755;28;20070;-73
2022/04/18 11:37:13;;;;;;;13.70;8.98;;;18.80;49.00;;;;;;5089334;28;20036;-73
2022/04/18 11:39:49;;;;;;;9.10;5.95;;;18.80;49.50;;;;;;5087961;28;20044;-72
2022/04/18 11:42:25;;;;;;;7.53;5.30;;;18.90;48.50;;;;;;5075881;28;20411;-73
2022/04/18 11:44:53;;;;;;;9.65;5.93;;;19.00;47.00;;;;;;5089245;28;20075;-73
2022/04/18 11:47:44;;;;;;;9.07;5.72;;;19.00;47.30;;;;;;5079934;28;20048;-74
2022/04/18 11:50:10;;;;;;;6.75;5.75;;;19.10;48.90;;;;;;5073015;28;20545;-73
2022/04/18 11:52:38;;;;;;;8.70;6.38;;;19.10;48.10;;;;;;5072477;28;20123;-72
2022/04/18 11:55:11;;;;;;;7.80;5.15;;;19.20;48.00;;;;;;5089063;28;20081;-73
2022/04/18 11:57:38;;;;;;;5.88;4.82;;;19.30;47.10;;;;;;5088547;28;20093;-72
2022/04/18 12:00:07;;;;;;;6.03;4.80;;;19.30;46.30;;;;;;5087163;28;20043;-74
2022/04/18 12:08:05;;;;;;;8.05;5.95;;;19.30;48.80;;;;;;5088897;28;20139;-73
2022/04/18 12:10:35;;;;;;;9.02;5.80;;;19.30;50.00;;;;;;5087437;28;20036;-71
2022/04/18 12:13:13;;;;;;;7.78;6.10;;;19.40;49.50;;;;;;5078274;28;20074;-73
2022/04/18 12:15:41;;;;;;;9.32;6.18;;;19.50;49.10;;;;;;5088829;28;20036;-72
2022/04/18 12:18:18;;;;;;;8.77;5.90;;;19.60;47.10;;;;;;5086700;28;20048;-73
2022/04/18 12:20:45;;;;;;;7.00;5.70;;;19.50;42.90;;;;;;5087868;28;20028;-72
2022/04/18 12:23:19;;;;;;;7.25;5.30;;;19.40;43.10;;;;;;5088698;28;20036;-73
2022/04/18 12:25:50;;;;;;;7.82;5.93;;;19.40;48.10;;;;;;5088538;28;20109;-73
2022/04/18 12:28:20;;;;;;;7.03;5.50;;;19.50;47.60;;;;;;5105309;28;20044;-73
2022/04/18 12:30:46;;;;;;;9.95;6.25;;;19.70;48.30;;;;;;5087957;28;20048;-73
2022/04/18 12:33:19;;;;;;;9.23;6.15;;;19.80;44.20;;;;;;5089070;28;20119;-72
2022/04/18 12:35:47;;;;;;;10.90;6.22;;;19.80;46.50;;;;;;5089060;28;20040;-73
2022/04/18 12:38:14;;;;;;;7.65;6.15;;;19.90;44.90;;;;;;5087517;28;20044;-72
2022/04/18 12:40:44;;;;;;;9.43;5.90;;;19.90;44.80;;;;;;5086120;28;20529;-72
2022/04/18 12:43:15;;;;;;;8.57;5.72;;;19.90;46.40;;;;;;5085161;28;20035;-73
2022/04/18 12:45:45;;;;;;;8.82;5.80;;;19.90;43.70;;;;;;5087170;28;20032;-70
2022/04/18 12:48:10;;;;;;;7.75;5.47;;;20.00;44.20;;;;;;5067405;28;20043;-71
2022/04/18 12:50:37;;;;;;;8.45;5.85;;;20.00;43.80;;;;;;5084939;28;20040;-73
2022/04/18 12:53:03;;;;;;;8.60;4.93;;;20.10;43.80;;;;;;5068198;28;20032;-72
2022/04/18 12:55:32;;;;;;;7.47;4.97;;;20.10;44.10;;;;;;5083284;28;20097;-71
2022/04/18 12:57:59;;;;;;;7.40;5.25;;;20.20;44.10;;;;;;5083675;28;20040;-71
2022/04/18 13:00:33;;;;;;;7.38;5.57;;;20.30;44.50;;;;;;5073640;28;20096;-72